createdAt,value
2017-08-14T00:00:34.233Z,24.80
2017-08-14T00:03:02.031Z,24.80
2017-08-14T00:05:29.767Z,24.80
2017-08-14T00:07:57.499Z,24.70
2017-08-14T00:10:25.220Z,24.70
2017-08-14T00:12:52.946Z,24.70
2017-08-14T00:15:20.739Z,24.70
2017-08-14T00:17:48.474Z,24.60
2017-08-14T00:20:16.239Z,24.60
2017-08-14T00:22:43.956Z,24.60
2017-08-14T00:25:11.685Z,24.60
2017-08-14T00:27:39.391Z,24.60
2017-08-14T00:30:07.157Z,24.60
2017-08-14T00:32:34.880Z,24.60
2017-08-14T00:35:03.369Z,24.50
2017-08-14T00:37:31.156Z,24.40
2017-08-14T00:39:58.998Z,24.50
2017-08-14T00:42:26.721Z,24.40
2017-08-14T00:44:54.467Z,24.40
2017-08-14T00:47:22.250Z,24.40
2017-08-14T00:49:50.010Z,24.40
2017-08-14T00:52:17.797Z,24.30
2017-08-14T00:54:45.568Z,24.30
2017-08-14T00:57:13.899Z,24.20
2017-08-14T00:59:41.631Z,24.30
2017-08-14T01:02:09.371Z,24.20
2017-08-14T01:04:37.090Z,24.30
2017-08-14T01:07:04.888Z,24.20
2017-08-14T01:09:32.612Z,24.20
2017-08-14T01:12:01.109Z,24.20
2017-08-14T01:14:28.848Z,24.10
2017-08-14T01:16:56.632Z,24.10
2017-08-14T01:19:24.367Z,24.00
2017-08-14T01:21:52.152Z,24.10
2017-08-14T01:24:19.876Z,24.10
2017-08-14T01:26:48.081Z,24.00
2017-08-14T01:29:15.860Z,23.90
2017-08-14T01:31:43.580Z,24.00
2017-08-14T01:34:11.387Z,24.00
2017-08-14T01:36:39.112Z,24.00
2017-08-14T01:39:06.919Z,24.00
2017-08-14T01:41:34.729Z,24.10
2017-08-14T01:44:02.453Z,24.10
2017-08-14T01:46:30.173Z,24.00
2017-08-14T01:48:57.913Z,24.00
2017-08-14T01:51:25.683Z,23.90
2017-08-14T01:53:53.404Z,23.90
2017-08-14T01:56:21.152Z,23.80
2017-08-14T01:58:48.945Z,23.70
2017-08-14T02:01:16.670Z,23.70
2017-08-14T02:03:44.413Z,23.70
2017-08-14T02:06:12.128Z,23.70
2017-08-14T02:08:39.921Z,23.60
2017-08-14T02:11:07.657Z,23.60
2017-08-14T02:13:35.379Z,23.70
2017-08-14T02:16:03.106Z,23.70
2017-08-14T02:18:30.898Z,23.60
2017-08-14T02:20:58.672Z,23.60
2017-08-14T02:23:26.435Z,23.60
2017-08-14T02:25:54.219Z,23.50
2017-08-14T02:28:21.932Z,23.50
2017-08-14T02:30:49.694Z,23.50
2017-08-14T02:33:17.465Z,23.50
2017-08-14T02:35:45.186Z,23.60
2017-08-14T02:38:12.918Z,23.50
2017-08-14T02:40:40.736Z,23.60
2017-08-14T02:43:08.468Z,23.40
2017-08-14T02:45:36.190Z,23.40
2017-08-14T02:48:03.973Z,23.40
2017-08-14T02:50:31.744Z,23.30
2017-08-14T02:52:59.478Z,23.50
2017-08-14T02:55:27.256Z,23.50
2017-08-14T02:57:54.976Z,23.50
2017-08-14T03:00:22.701Z,23.50
2017-08-14T03:02:50.432Z,23.40
2017-08-14T03:05:18.147Z,23.40
2017-08-14T03:07:45.870Z,23.30
2017-08-14T03:10:13.668Z,23.30
2017-08-14T03:12:41.384Z,23.20
2017-08-14T03:15:09.152Z,23.20
2017-08-14T03:17:36.924Z,23.20
2017-08-14T03:20:04.696Z,23.20
2017-08-14T03:22:32.487Z,23.20
2017-08-14T03:25:00.220Z,23.20
2017-08-14T03:27:28.021Z,23.20
2017-08-14T03:29:55.840Z,23.10
2017-08-14T03:32:23.620Z,23.10
2017-08-14T03:34:51.357Z,23.10
2017-08-14T03:37:19.072Z,23.20
2017-08-14T03:39:46.833Z,23.10
2017-08-14T03:42:14.605Z,23.10
2017-08-14T03:44:42.385Z,23.10
2017-08-14T03:47:10.172Z,23.10
2017-08-14T03:49:37.953Z,23.10
2017-08-14T03:52:05.672Z,23.10
2017-08-14T03:54:33.483Z,23.00
2017-08-14T03:57:01.312Z,22.90
2017-08-14T03:59:29.089Z,22.80
2017-08-14T04:01:56.887Z,22.80
2017-08-14T04:04:24.654Z,22.70
2017-08-14T04:06:52.424Z,22.70
2017-08-14T04:09:20.149Z,22.70
2017-08-14T04:11:47.916Z,22.80
2017-08-14T04:14:15.694Z,22.80
2017-08-14T04:16:43.513Z,22.80
2017-08-14T04:19:11.243Z,22.70
2017-08-14T04:21:39.012Z,22.70
2017-08-14T04:24:06.753Z,22.70
2017-08-14T04:26:34.540Z,22.90
2017-08-14T04:29:02.327Z,22.80
2017-08-14T04:31:30.123Z,22.80
2017-08-14T04:33:57.848Z,22.80
2017-08-14T04:36:25.575Z,22.90
2017-08-14T04:38:53.299Z,22.90
2017-08-14T04:41:21.034Z,22.90
2017-08-14T04:43:48.759Z,22.90
2017-08-14T04:46:16.548Z,22.90
2017-08-14T04:48:44.263Z,22.90
2017-08-14T04:51:12.037Z,22.80
2017-08-14T04:53:39.770Z,22.80
2017-08-14T04:56:07.490Z,22.80
2017-08-14T04:58:35.278Z,22.90
2017-08-14T05:01:03.012Z,22.90
2017-08-14T05:03:30.794Z,23.00
2017-08-14T05:05:58.590Z,23.00
2017-08-14T05:08:26.367Z,22.90
2017-08-14T05:10:54.154Z,23.00
2017-08-14T05:13:21.908Z,23.00
2017-08-14T05:15:49.715Z,23.10
2017-08-14T05:18:17.487Z,23.20
2017-08-14T05:20:45.263Z,23.30
2017-08-14T05:23:13.045Z,23.30
2017-08-14T05:25:40.820Z,23.40
2017-08-14T05:28:08.527Z,23.40
2017-08-14T05:30:36.250Z,23.30
2017-08-14T05:33:03.983Z,23.30
2017-08-14T05:39:21.045Z,23.20
2017-08-14T05:41:53.158Z,23.20
2017-08-14T05:46:57.572Z,23.20
2017-08-14T05:49:25.363Z,23.20
2017-08-14T05:51:53.075Z,23.20
2017-08-14T05:54:20.815Z,23.20
2017-08-14T05:56:48.592Z,23.20
2017-08-14T05:59:16.329Z,23.30
2017-08-14T06:01:44.128Z,23.30
2017-08-14T06:04:11.898Z,23.40
2017-08-14T06:06:39.690Z,23.50
2017-08-14T06:09:07.475Z,23.50
2017-08-14T06:11:35.205Z,23.50
2017-08-14T06:14:02.934Z,23.60
2017-08-14T06:16:30.747Z,23.60
2017-08-14T06:18:58.518Z,23.60
2017-08-14T06:21:26.237Z,23.70
2017-08-14T06:23:53.956Z,23.70
2017-08-14T06:26:21.755Z,23.70
2017-08-14T06:28:49.533Z,23.80
2017-08-14T06:31:17.272Z,23.80
2017-08-14T06:33:45.094Z,23.90
2017-08-14T06:36:12.874Z,23.90
2017-08-14T06:38:40.646Z,23.90
2017-08-14T06:41:08.424Z,24.00
2017-08-14T06:43:36.198Z,24.00
2017-08-14T06:46:04.009Z,24.00
2017-08-14T06:48:31.734Z,24.30
2017-08-14T06:50:59.517Z,24.40
2017-08-14T06:53:27.303Z,24.30
2017-08-14T06:55:55.077Z,24.40
2017-08-14T06:58:22.859Z,24.90
2017-08-14T07:00:50.649Z,24.60
2017-08-14T07:03:18.369Z,24.50
2017-08-14T07:05:46.093Z,24.50
2017-08-14T07:08:13.805Z,24.50
2017-08-14T07:10:41.541Z,24.50
2017-08-14T07:13:09.267Z,24.50
2017-08-14T07:15:37.768Z,25.00
2017-08-14T07:18:05.477Z,25.00
2017-08-14T07:20:33.256Z,25.20
2017-08-14T07:23:01.032Z,25.20
2017-08-14T07:25:28.858Z,25.10
2017-08-14T07:27:56.600Z,25.10
2017-08-14T07:30:24.400Z,25.10
2017-08-14T07:32:52.126Z,25.10
2017-08-14T07:35:19.900Z,25.20
2017-08-14T07:37:48.490Z,25.20
2017-08-14T07:40:16.252Z,25.20
2017-08-14T07:42:44.061Z,25.20
2017-08-14T07:45:11.878Z,25.30
2017-08-14T07:47:39.680Z,25.20
2017-08-14T07:50:07.386Z,25.40
2017-08-14T07:52:35.137Z,25.40
2017-08-14T07:55:02.848Z,25.60
2017-08-14T07:57:30.564Z,25.60
2017-08-14T07:59:58.329Z,25.70
2017-08-14T08:02:26.117Z,25.60
2017-08-14T08:04:53.887Z,25.70
2017-08-14T08:07:21.616Z,25.90
2017-08-14T08:09:49.346Z,25.90
2017-08-14T08:12:17.128Z,26.00
2017-08-14T08:14:44.905Z,26.20
2017-08-14T08:17:12.626Z,26.40
2017-08-14T08:19:40.457Z,26.30
2017-08-14T08:22:08.238Z,26.20
2017-08-14T08:24:36.008Z,26.20
2017-08-14T08:27:03.726Z,26.10
2017-08-14T08:29:31.528Z,26.20
2017-08-14T08:31:59.307Z,26.30
2017-08-14T08:34:27.144Z,26.60
2017-08-14T08:36:54.886Z,26.60
2017-08-14T08:39:22.690Z,26.50
2017-08-14T08:41:50.495Z,26.50
2017-08-14T08:44:18.288Z,26.50
2017-08-14T08:46:46.046Z,26.50
2017-08-14T08:49:13.829Z,26.40
2017-08-14T08:51:41.639Z,26.50
2017-08-14T08:54:09.363Z,26.40
2017-08-14T08:56:37.188Z,26.60
2017-08-14T08:59:05.886Z,26.70
2017-08-14T09:01:33.675Z,26.70
2017-08-14T09:04:01.538Z,26.80
2017-08-14T09:06:30.162Z,26.80
2017-08-14T09:08:58.095Z,26.80
2017-08-14T09:11:26.641Z,26.80
2017-08-14T09:13:54.435Z,26.80
2017-08-14T09:16:22.208Z,26.80
2017-08-14T09:18:50.000Z,26.80
2017-08-14T09:21:17.787Z,26.70
2017-08-14T09:23:45.751Z,26.70
2017-08-14T09:26:13.641Z,26.70
2017-08-14T09:28:41.376Z,26.80
2017-08-14T09:31:09.094Z,26.70
2017-08-14T09:33:36.816Z,26.80
2017-08-14T09:36:04.598Z,26.70
2017-08-14T09:38:33.118Z,26.80
2017-08-14T09:41:00.892Z,26.80
2017-08-14T09:43:28.673Z,26.90
2017-08-14T09:45:57.170Z,27.00
2017-08-14T09:48:24.954Z,26.90
2017-08-14T09:50:52.751Z,26.80
2017-08-14T09:53:20.557Z,26.90
2017-08-14T09:55:48.345Z,27.00
2017-08-14T09:58:16.349Z,27.00
2017-08-14T10:00:44.285Z,27.20
2017-08-14T10:03:12.014Z,27.10
2017-08-14T10:05:39.834Z,27.00
2017-08-14T10:08:07.656Z,27.10
2017-08-14T10:10:35.522Z,27.00
2017-08-14T10:13:03.390Z,27.00
2017-08-14T10:15:31.179Z,27.00
2017-08-14T10:17:59.802Z,27.10
2017-08-14T10:20:27.619Z,27.00
2017-08-14T10:22:56.182Z,27.10
2017-08-14T10:25:24.120Z,27.00
2017-08-14T10:27:51.909Z,27.00
2017-08-14T10:30:19.658Z,27.00
2017-08-14T10:32:47.485Z,27.00
2017-08-14T10:35:15.242Z,27.00
2017-08-14T10:37:43.679Z,27.00
2017-08-14T10:40:11.400Z,27.00
2017-08-14T10:42:39.140Z,27.00
2017-08-14T10:45:07.062Z,27.10
2017-08-14T10:47:34.875Z,27.10
2017-08-14T10:50:02.837Z,27.20
2017-08-14T10:52:30.567Z,27.30
2017-08-14T10:54:58.302Z,27.20
2017-08-14T10:57:26.088Z,27.20
2017-08-14T10:59:53.833Z,27.20
2017-08-14T11:02:21.619Z,27.20
2017-08-14T11:04:49.392Z,27.20
2017-08-14T11:07:17.478Z,27.20
2017-08-14T11:09:45.210Z,27.20
2017-08-14T11:12:13.001Z,27.20
2017-08-14T11:14:40.725Z,27.20
2017-08-14T11:17:09.305Z,27.20
2017-08-14T11:19:37.122Z,27.20
2017-08-14T11:22:06.602Z,27.20
2017-08-14T11:24:35.851Z,27.10
2017-08-14T11:27:03.618Z,27.20
2017-08-14T11:29:31.353Z,27.20
2017-08-14T11:31:59.110Z,27.20
2017-08-14T11:34:26.889Z,27.30
2017-08-14T11:36:54.625Z,27.30
2017-08-14T11:39:22.436Z,27.40
2017-08-14T11:41:50.272Z,27.40
2017-08-14T11:44:18.905Z,27.40
2017-08-14T11:46:46.690Z,27.30
2017-08-14T11:49:16.562Z,27.50
2017-08-14T11:51:44.398Z,27.50
2017-08-14T11:54:12.112Z,27.30
2017-08-14T11:56:39.852Z,27.50
2017-08-14T11:59:07.648Z,27.50
2017-08-14T12:01:35.375Z,27.40
2017-08-14T12:04:03.152Z,27.40
2017-08-14T12:06:30.937Z,27.50
2017-08-14T12:08:59.316Z,27.40
2017-08-14T12:11:27.065Z,27.40
2017-08-14T12:13:54.789Z,27.40
2017-08-14T12:16:22.509Z,27.50
2017-08-14T12:18:51.103Z,27.50
2017-08-14T12:21:18.855Z,27.50
2017-08-14T12:23:46.635Z,27.50
2017-08-14T12:26:14.361Z,27.50
2017-08-14T12:28:42.154Z,27.50
2017-08-14T12:31:09.952Z,27.50
2017-08-14T12:33:37.735Z,27.40
2017-08-14T12:36:05.466Z,27.40
2017-08-14T12:38:33.205Z,27.50
2017-08-14T12:41:01.007Z,27.40
2017-08-14T12:43:28.769Z,27.40
2017-08-14T12:45:56.523Z,27.50
2017-08-14T12:48:24.306Z,27.60
2017-08-14T12:50:52.028Z,27.60
2017-08-14T12:53:19.804Z,27.60
2017-08-14T12:55:47.585Z,27.70
2017-08-14T12:58:15.360Z,27.70
2017-08-14T13:00:43.067Z,27.60
2017-08-14T13:03:10.849Z,27.70
2017-08-14T13:05:38.627Z,27.90
2017-08-14T13:08:06.407Z,27.90
2017-08-14T13:10:34.208Z,27.80
2017-08-14T13:13:02.010Z,28.00
2017-08-14T13:15:29.781Z,27.80
2017-08-14T13:17:59.658Z,27.90
2017-08-14T13:20:27.450Z,27.80
2017-08-14T13:22:55.183Z,28.00
2017-08-14T13:25:22.921Z,28.00
2017-08-14T13:27:50.636Z,27.90
2017-08-14T13:30:18.356Z,27.90
2017-08-14T13:32:46.082Z,28.00
2017-08-14T13:35:13.854Z,28.20
2017-08-14T13:37:41.621Z,28.10
2017-08-14T13:40:09.358Z,28.00
2017-08-14T13:42:37.864Z,27.90
2017-08-14T13:45:05.589Z,27.90
2017-08-14T13:47:33.770Z,27.90
2017-08-14T13:50:01.585Z,27.90
2017-08-14T13:52:29.322Z,27.90
2017-08-14T13:54:57.140Z,27.90
2017-08-14T13:57:24.907Z,27.90
2017-08-14T13:59:52.701Z,27.90
2017-08-14T14:02:20.522Z,27.90
2017-08-14T14:04:48.311Z,28.00
2017-08-14T14:07:16.018Z,28.00
2017-08-14T14:09:44.515Z,27.90
2017-08-14T14:12:12.246Z,27.90
2017-08-14T14:14:40.019Z,27.90
2017-08-14T14:17:07.816Z,28.00
2017-08-14T14:19:35.592Z,27.90
2017-08-14T14:22:03.310Z,27.90
2017-08-14T14:24:31.085Z,28.00
2017-08-14T14:26:58.881Z,27.90
2017-08-14T14:29:26.657Z,27.90
2017-08-14T14:31:54.465Z,27.90
2017-08-14T14:34:22.258Z,28.00
2017-08-14T14:36:50.024Z,27.90
2017-08-14T14:39:17.835Z,27.90
2017-08-14T14:41:45.584Z,27.90
2017-08-14T14:44:13.391Z,27.90
2017-08-14T14:46:41.205Z,28.00
2017-08-14T14:49:09.758Z,28.10
2017-08-14T14:51:37.563Z,28.10
2017-08-14T14:54:05.297Z,28.10
2017-08-14T14:56:33.093Z,28.10
2017-08-14T14:59:00.815Z,28.10
2017-08-14T15:01:28.624Z,28.00
2017-08-14T15:03:56.399Z,28.10
2017-08-14T15:06:24.138Z,28.00
2017-08-14T15:08:51.921Z,27.90
2017-08-14T15:11:19.651Z,27.90
2017-08-14T15:13:47.385Z,27.90
2017-08-14T15:16:15.107Z,27.90
2017-08-14T15:18:42.828Z,27.90
2017-08-14T15:21:10.597Z,27.90
2017-08-14T15:23:38.334Z,28.20
2017-08-14T15:26:06.106Z,28.20
2017-08-14T15:28:33.888Z,28.40
2017-08-14T15:31:01.664Z,28.40
2017-08-14T15:33:29.447Z,28.40
2017-08-14T15:35:57.218Z,28.20
2017-08-14T15:38:24.975Z,28.60
2017-08-14T15:40:52.744Z,28.30
2017-08-14T15:43:21.463Z,28.20
2017-08-14T15:45:49.203Z,28.10
2017-08-14T15:48:17.035Z,28.00
2017-08-14T15:50:44.800Z,28.00
2017-08-14T15:53:14.445Z,28.10
2017-08-14T15:55:43.394Z,28.00
2017-08-14T15:58:13.521Z,28.00
2017-08-14T16:00:43.441Z,28.00
2017-08-14T16:03:11.811Z,28.00
2017-08-14T16:05:40.409Z,28.00
2017-08-14T16:08:08.191Z,28.00
2017-08-14T16:10:35.964Z,28.10
2017-08-14T16:13:03.743Z,28.20
2017-08-14T16:15:31.455Z,28.20
2017-08-14T16:17:59.168Z,28.30
2017-08-14T16:20:26.892Z,28.30
2017-08-14T16:22:54.621Z,28.40
2017-08-14T16:25:22.355Z,28.50
2017-08-14T16:27:50.151Z,28.40
2017-08-14T16:30:17.917Z,28.40
2017-08-14T16:32:46.996Z,28.40
2017-08-14T16:35:16.147Z,28.40
2017-08-14T16:37:44.995Z,28.30
2017-08-14T16:40:12.789Z,28.30
2017-08-14T16:42:40.582Z,28.30
2017-08-14T16:45:08.375Z,28.30
2017-08-14T16:47:36.106Z,28.30
2017-08-14T16:50:03.845Z,28.30
2017-08-14T16:52:31.583Z,28.30
2017-08-14T16:54:59.367Z,28.30
2017-08-14T16:57:27.145Z,28.30
2017-08-14T16:59:54.907Z,28.30
2017-08-14T17:02:22.643Z,28.30
2017-08-14T17:04:50.382Z,28.30
2017-08-14T17:07:18.169Z,28.30
2017-08-14T17:09:45.910Z,28.30
2017-08-14T17:12:13.677Z,28.40
2017-08-14T17:14:41.469Z,28.40
2017-08-14T17:17:09.261Z,28.30
2017-08-14T17:19:37.078Z,28.40
2017-08-14T17:22:04.823Z,28.40
2017-08-14T17:24:32.619Z,28.40
2017-08-14T17:27:00.336Z,28.50
2017-08-14T17:29:28.141Z,28.50
2017-08-14T17:31:55.932Z,28.50
2017-08-14T17:34:23.713Z,28.50
2017-08-14T17:36:51.510Z,28.50
2017-08-14T17:39:19.311Z,28.40
2017-08-14T17:41:47.041Z,28.40
2017-08-14T17:44:14.893Z,28.50
2017-08-14T17:46:42.616Z,28.50
2017-08-14T17:49:10.385Z,28.50
2017-08-14T17:51:38.178Z,28.50
2017-08-14T17:54:05.910Z,28.50
2017-08-14T17:56:33.720Z,28.50
2017-08-14T17:59:01.883Z,28.50
2017-08-14T18:01:29.691Z,28.50
2017-08-14T18:03:57.439Z,28.60
2017-08-14T18:06:25.165Z,28.60
2017-08-14T18:08:53.007Z,28.50
2017-08-14T18:11:20.727Z,28.50
2017-08-14T18:13:48.454Z,28.50
2017-08-14T18:16:19.292Z,28.50
2017-08-14T18:18:47.004Z,28.50
2017-08-14T18:21:14.773Z,28.50
2017-08-14T18:23:42.527Z,28.50
2017-08-14T18:26:12.180Z,28.50
2017-08-14T18:28:39.913Z,28.50
2017-08-14T18:31:07.694Z,28.50
2017-08-14T18:33:35.435Z,28.50
2017-08-14T18:36:03.235Z,28.50
2017-08-14T18:38:31.031Z,28.50
2017-08-14T18:40:58.811Z,28.50
2017-08-14T18:43:26.637Z,28.40
2017-08-14T18:45:54.383Z,28.40
2017-08-14T18:48:22.160Z,28.40
2017-08-14T18:50:55.799Z,28.40
2017-08-14T18:53:25.672Z,28.40
2017-08-14T18:55:53.723Z,28.40
2017-08-14T18:58:21.582Z,28.50
2017-08-14T19:00:49.347Z,28.50
2017-08-14T19:03:17.099Z,28.50
2017-08-14T19:05:44.831Z,28.50
2017-08-14T19:08:12.798Z,28.50
2017-08-14T19:10:40.436Z,28.40
2017-08-14T19:13:08.161Z,28.50
2017-08-14T19:15:35.884Z,28.50
2017-08-14T19:18:03.683Z,28.50
2017-08-14T19:20:31.405Z,28.60
2017-08-14T19:22:59.199Z,28.50
2017-08-14T19:25:26.970Z,28.50
2017-08-14T19:27:54.753Z,28.50
2017-08-14T19:30:22.469Z,28.50
2017-08-14T19:32:50.252Z,28.50
2017-08-14T19:35:18.028Z,28.50
2017-08-14T19:37:45.809Z,28.50
2017-08-14T19:40:13.604Z,28.50
2017-08-14T19:42:41.391Z,28.50
2017-08-14T19:45:09.192Z,28.40
2017-08-14T19:47:36.971Z,28.40
2017-08-14T19:50:04.817Z,28.40
2017-08-14T19:52:32.629Z,28.50
2017-08-14T19:55:00.431Z,28.50
2017-08-14T19:57:28.219Z,28.50
2017-08-14T19:59:55.952Z,28.60
2017-08-14T20:02:23.760Z,28.50
2017-08-14T20:04:51.502Z,28.50
2017-08-14T20:07:19.248Z,28.60
2017-08-14T20:09:46.980Z,28.60
2017-08-14T20:12:14.703Z,28.50
2017-08-14T20:14:43.226Z,28.50
2017-08-14T20:17:11.009Z,28.50
2017-08-14T20:19:38.810Z,28.50
2017-08-14T20:22:06.587Z,28.50
2017-08-14T20:24:34.394Z,28.50
2017-08-14T20:27:02.140Z,28.50
2017-08-14T20:29:29.917Z,28.50
2017-08-14T20:31:57.713Z,28.40
2017-08-14T20:34:25.449Z,28.40
2017-08-14T20:36:53.170Z,28.40
2017-08-14T20:39:20.901Z,28.40
2017-08-14T20:41:48.636Z,28.40
2017-08-14T20:44:16.433Z,28.40
2017-08-14T20:46:44.158Z,28.40
2017-08-14T20:49:11.935Z,28.30
2017-08-14T20:51:39.723Z,28.40
2017-08-14T20:54:07.479Z,28.40
2017-08-14T20:56:35.200Z,28.40
2017-08-14T20:59:02.934Z,28.30
2017-08-14T21:01:30.723Z,28.30
2017-08-14T21:03:58.554Z,28.30
2017-08-14T21:06:26.340Z,28.30
2017-08-14T21:08:54.123Z,28.30
2017-08-14T21:11:21.902Z,28.30
2017-08-14T21:13:49.658Z,28.20
2017-08-14T21:16:17.437Z,28.20
2017-08-14T21:18:45.221Z,28.10
2017-08-14T21:21:13.018Z,28.10
2017-08-14T21:23:40.783Z,28.10
2017-08-14T21:26:08.552Z,28.10
2017-08-14T21:28:36.365Z,28.10
2017-08-14T21:31:04.147Z,28.10
2017-08-14T21:33:32.704Z,28.10
2017-08-14T21:36:00.429Z,28.10
2017-08-14T21:38:28.180Z,28.10
2017-08-14T21:40:55.988Z,28.20
2017-08-14T21:43:23.765Z,28.20
2017-08-14T21:45:51.575Z,28.20
2017-08-14T21:48:19.379Z,28.20
2017-08-14T21:50:47.122Z,28.20
2017-08-14T21:53:15.832Z,28.30
2017-08-14T21:55:43.624Z,28.20
2017-08-14T21:58:11.429Z,28.20
2017-08-14T22:00:40.001Z,28.10
2017-08-14T22:03:07.733Z,28.10
2017-08-14T22:05:35.459Z,28.20
2017-08-14T22:08:03.188Z,28.10
2017-08-14T22:10:30.974Z,28.20
2017-08-14T22:12:58.771Z,28.20
2017-08-14T22:15:26.509Z,28.10
2017-08-14T22:17:57.018Z,28.10
2017-08-14T22:20:24.926Z,28.00
2017-08-14T22:22:52.685Z,28.00
2017-08-14T22:25:20.491Z,28.10
2017-08-14T22:27:48.268Z,28.20
2017-08-14T22:30:16.043Z,28.20
2017-08-14T22:32:43.879Z,28.30
2017-08-14T22:35:11.686Z,28.30
2017-08-14T22:37:39.460Z,28.30
2017-08-14T22:40:07.206Z,28.30
2017-08-14T22:42:34.960Z,28.10
2017-08-14T22:45:02.745Z,27.80
2017-08-14T22:47:30.468Z,27.70
2017-08-14T22:49:58.967Z,27.50
2017-08-14T22:52:26.754Z,27.50
2017-08-14T22:54:54.537Z,27.50
2017-08-14T22:57:22.373Z,27.30
2017-08-14T22:59:50.121Z,27.20
2017-08-14T23:02:17.891Z,27.10
2017-08-14T23:04:45.616Z,26.90
2017-08-14T23:07:14.063Z,26.90
2017-08-14T23:09:41.835Z,26.90
2017-08-14T23:12:09.642Z,26.90
2017-08-14T23:14:37.376Z,26.90
2017-08-14T23:17:05.148Z,26.80
2017-08-14T23:19:32.879Z,26.70
2017-08-14T23:22:00.613Z,26.70
2017-08-14T23:24:28.399Z,26.70
2017-08-14T23:26:56.218Z,26.70
2017-08-14T23:29:23.986Z,26.70
2017-08-14T23:31:51.766Z,26.70
2017-08-14T23:34:19.548Z,26.70
2017-08-14T23:36:47.279Z,26.70
2017-08-14T23:39:15.053Z,26.60
2017-08-14T23:41:42.801Z,26.60
2017-08-14T23:44:10.603Z,26.50
2017-08-14T23:46:38.320Z,26.50
2017-08-14T23:49:06.098Z,26.50
2017-08-14T23:51:33.894Z,26.50
2017-08-14T23:54:01.696Z,26.50
2017-08-14T23:56:30.195Z,26.30
2017-08-14T23:58:58.011Z,26.30
